Terminal Aerodrome Forecast
Issued by NWS Lake Charles, LA

Home | Current Version | Previous Version | Text Only | Print | Product List | Glossary On
Versions: 1 2 3 4 5 6 7 8 9 10 11 12 13
000
FTUS44 KLCH 271700
TAFBPT
TAF
KBPT 271740Z 2718/2818 08010KT P6SM VCTS BKN030 BKN040CB BKN250
      TEMPO 2718/2721 VRB15G20KT 3SM -TSRA BKN030CB OVC100
     FM280000 10004KT P6SM VCSH FEW050 SCT100 SCT250=

USA.gov is the U.S. government's official web portal to all federal, state and local government web resources and services.